sensor_id;sensor_type;location;lat;lon;timestamp;temperature;humidity
26270;DHT22;15937;50.612;6.656;2022-07-04T00:03:06;15.20;99.90
26270;DHT22;15937;50.612;6.656;2022-07-04T00:07:09;15.20;99.90
26270;DHT22;15937;50.612;6.656;2022-07-04T00:11:10;15.00;99.90
26270;DHT22;15937;50.612;6.656;2022-07-04T00:15:13;14.80;99.90
26270;DHT22;15937;50.612;6.656;2022-07-04T00:19:15;15.00;99.90
26270;DHT22;15937;50.612;6.656;2022-07-04T00:23:17;14.90;99.90
26270;DHT22;15937;50.612;6.656;2022-07-04T00:27:19;15.00;99.90
26270;DHT22;15937;50.612;6.656;2022-07-04T00:31:20;14.80;99.90
26270;DHT22;15937;50.612;6.656;2022-07-04T00:35:22;14.50;99.90
26270;DHT22;15937;50.612;6.656;2022-07-04T00:39:24;14.60;99.90
26270;DHT22;15937;50.612;6.656;2022-07-04T00:43:27;14.60;99.90
26270;DHT22;15937;50.612;6.656;2022-07-04T00:47:29;14.50;99.90
26270;DHT22;15937;50.612;6.656;2022-07-04T00:51:31;14.50;99.90
26270;DHT22;15937;50.612;6.656;2022-07-04T00:55:34;14.40;99.90
26270;DHT22;15937;50.612;6.656;2022-07-04T00:59:38;14.40;99.90
26270;DHT22;15937;50.612;6.656;2022-07-04T01:03:40;14.50;99.90
26270;DHT22;15937;50.612;6.656;2022-07-04T01:07:43;14.40;99.90
26270;DHT22;15937;50.612;6.656;2022-07-04T01:11:45;14.20;99.90
26270;DHT22;15937;50.612;6.656;2022-07-04T01:15:46;14.10;99.90
26270;DHT22;15937;50.612;6.656;2022-07-04T01:19:49;14.40;99.90
26270;DHT22;15937;50.612;6.656;2022-07-04T01:23:50;14.40;99.90
26270;DHT22;15937;50.612;6.656;2022-07-04T01:27:52;14.40;99.90
26270;DHT22;15937;50.612;6.656;2022-07-04T01:31:54;14.30;99.90
26270;DHT22;15937;50.612;6.656;2022-07-04T01:35:56;14.20;99.90
26270;DHT22;15937;50.612;6.656;2022-07-04T01:39:57;14.20;99.90
26270;DHT22;15937;50.612;6.656;2022-07-04T01:43:59;14.10;99.90
26270;DHT22;15937;50.612;6.656;2022-07-04T01:48:01;14.10;99.90
26270;DHT22;15937;50.612;6.656;2022-07-04T01:52:04;14.00;99.90
26270;DHT22;15937;50.612;6.656;2022-07-04T01:56:05;14.10;99.90
26270;DHT22;15937;50.612;6.656;2022-07-04T02:00:09;14.00;99.90
26270;DHT22;15937;50.612;6.656;2022-07-04T02:04:30;13.80;99.90
26270;DHT22;15937;50.612;6.656;2022-07-04T02:08:32;13.60;99.90
26270;DHT22;15937;50.612;6.656;2022-07-04T02:12:52;13.70;99.90
26270;DHT22;15937;50.612;6.656;2022-07-04T02:17:03;13.60;99.90
26270;DHT22;15937;50.612;6.656;2022-07-04T02:21:05;13.50;99.90
26270;DHT22;15937;50.612;6.656;2022-07-04T02:25:07;13.30;99.90
26270;DHT22;15937;50.612;6.656;2022-07-04T02:29:08;13.40;99.90
26270;DHT22;15937;50.612;6.656;2022-07-04T02:33:10;13.30;99.90
26270;DHT22;15937;50.612;6.656;2022-07-04T02:37:12;13.20;99.90
26270;DHT22;15937;50.612;6.656;2022-07-04T02:41:14;13.40;99.90
26270;DHT22;15937;50.612;6.656;2022-07-04T02:45:16;13.20;99.90
26270;DHT22;15937;50.612;6.656;2022-07-04T02:49:18;13.30;99.90
26270;DHT22;15937;50.612;6.656;2022-07-04T02:53:20;13.50;99.90
26270;DHT22;15937;50.612;6.656;2022-07-04T13:16:34;24.20;77.80
26270;DHT22;15937;50.612;6.656;2022-07-04T13:25:26;23.20;77.10
26270;DHT22;15937;50.612;6.656;2022-07-04T13:29:28;23.60;77.50
26270;DHT22;15937;50.612;6.656;2022-07-04T13:33:31;24.20;76.50
26270;DHT22;15937;50.612;6.656;2022-07-04T13:37:33;24.00;75.40
26270;DHT22;15937;50.612;6.656;2022-07-04T13:41:35;24.30;75.20
26270;DHT22;15937;50.612;6.656;2022-07-04T13:45:40;24.50;76.60
26270;DHT22;15937;50.612;6.656;2022-07-04T13:49:43;24.70;73.40
26270;DHT22;15937;50.612;6.656;2022-07-04T13:53:52;24.30;72.40
26270;DHT22;15937;50.612;6.656;2022-07-04T13:57:58;24.40;74.30
26270;DHT22;15937;50.612;6.656;2022-07-04T14:02:00;24.10;75.80
26270;DHT22;15937;50.612;6.656;2022-07-04T14:06:02;23.50;77.00
26270;DHT22;15937;50.612;6.656;2022-07-04T14:10:07;24.80;77.00
26270;DHT22;15937;50.612;6.656;2022-07-04T14:14:11;24.90;71.60
26270;DHT22;15937;50.612;6.656;2022-07-04T14:18:13;24.40;73.90
26270;DHT22;15937;50.612;6.656;2022-07-04T14:22:15;23.80;74.10
26270;DHT22;15937;50.612;6.656;2022-07-04T14:26:17;24.00;73.90
26270;DHT22;15937;50.612;6.656;2022-07-04T14:30:22;24.30;74.70
26270;DHT22;15937;50.612;6.656;2022-07-04T14:34:32;23.60;76.30
26270;DHT22;15937;50.612;6.656;2022-07-04T14:38:38;23.10;76.50
26270;DHT22;15937;50.612;6.656;2022-07-04T14:42:43;23.30;76.30
26270;DHT22;15937;50.612;6.656;2022-07-04T14:47:05;23.80;76.50
26270;DHT22;15937;50.612;6.656;2022-07-04T14:51:12;24.00;74.20
26270;DHT22;15937;50.612;6.656;2022-07-04T14:55:16;23.90;75.20
26270;DHT22;15937;50.612;6.656;2022-07-04T14:59:18;23.80;75.40
26270;DHT22;15937;50.612;6.656;2022-07-04T15:03:21;23.30;76.10
26270;DHT22;15937;50.612;6.656;2022-07-04T15:12:37;23.80;76.90
26270;DHT22;15937;50.612;6.656;2022-07-04T15:16:40;23.80;74.30
26270;DHT22;15937;50.612;6.656;2022-07-04T15:20:42;23.70;75.70
26270;DHT22;15937;50.612;6.656;2022-07-04T15:25:06;23.40;74.70
26270;DHT22;15937;50.612;6.656;2022-07-04T15:29:08;23.30;74.20
26270;DHT22;15937;50.612;6.656;2022-07-04T15:33:14;23.80;74.80
26270;DHT22;15937;50.612;6.656;2022-07-04T15:37:18;23.70;74.80
26270;DHT22;15937;50.612;6.656;2022-07-04T15:41:20;23.70;74.70
26270;DHT22;15937;50.612;6.656;2022-07-04T15:45:22;23.60;76.90
26270;DHT22;15937;50.612;6.656;2022-07-04T15:49:24;23.70;75.30
26270;DHT22;15937;50.612;6.656;2022-07-04T15:53:26;23.80;75.90
26270;DHT22;15937;50.612;6.656;2022-07-04T15:57:28;24.00;74.00
26270;DHT22;15937;50.612;6.656;2022-07-04T16:01:30;24.30;75.10
26270;DHT22;15937;50.612;6.656;2022-07-04T16:05:35;23.80;73.50
26270;DHT22;15937;50.612;6.656;2022-07-04T16:09:37;24.10;73.50
26270;DHT22;15937;50.612;6.656;2022-07-04T16:13:39;23.90;73.00
26270;DHT22;15937;50.612;6.656;2022-07-04T16:17:41;23.80;73.50
26270;DHT22;15937;50.612;6.656;2022-07-04T16:21:43;23.60;72.90
26270;DHT22;15937;50.612;6.656;2022-07-04T16:25:49;23.30;74.60
26270;DHT22;15937;50.612;6.656;2022-07-04T16:29:53;23.10;75.30
26270;DHT22;15937;50.612;6.656;2022-07-04T16:33:56;23.10;75.60
26270;DHT22;15937;50.612;6.656;2022-07-04T16:37:58;23.70;72.60
26270;DHT22;15937;50.612;6.656;2022-07-04T16:42:00;23.70;72.60
26270;DHT22;15937;50.612;6.656;2022-07-04T16:46:07;23.80;72.70
26270;DHT22;15937;50.612;6.656;2022-07-04T16:50:09;24.00;73.10
26270;DHT22;15937;50.612;6.656;2022-07-04T16:54:12;23.70;72.40
26270;DHT22;15937;50.612;6.656;2022-07-04T16:58:14;23.90;72.70
26270;DHT22;15937;50.612;6.656;2022-07-04T17:02:16;23.90;71.40
26270;DHT22;15937;50.612;6.656;2022-07-04T17:06:18;24.30;72.40
26270;DHT22;15937;50.612;6.656;2022-07-04T17:10:21;23.80;72.00
26270;DHT22;15937;50.612;6.656;2022-07-04T17:14:23;24.00;73.20
26270;DHT22;15937;50.612;6.656;2022-07-04T17:23:38;24.60;72.20
26270;DHT22;15937;50.612;6.656;2022-07-04T17:28:14;23.50;72.50
26270;DHT22;15937;50.612;6.656;2022-07-04T17:32:44;23.60;73.40
26270;DHT22;15937;50.612;6.656;2022-07-04T17:37:03;23.80;74.20
26270;DHT22;15937;50.612;6.656;2022-07-04T17:41:30;23.80;73.50
26270;DHT22;15937;50.612;6.656;2022-07-04T17:46:27;23.80;72.90
26270;DHT22;15937;50.612;6.656;2022-07-04T17:50:36;23.60;73.00
26270;DHT22;15937;50.612;6.656;2022-07-04T17:54:44;23.70;72.90
26270;DHT22;15937;50.612;6.656;2022-07-04T17:58:58;23.50;71.80
26270;DHT22;15937;50.612;6.656;2022-07-04T18:08:46;23.50;72.50
26270;DHT22;15937;50.612;6.656;2022-07-04T18:12:57;23.50;72.20
26270;DHT22;15937;50.612;6.656;2022-07-04T18:17:42;23.40;72.30
26270;DHT22;15937;50.612;6.656;2022-07-04T18:37:14;22.60;73.60
26270;DHT22;15937;50.612;6.656;2022-07-04T18:41:19;22.40;74.10
26270;DHT22;15937;50.612;6.656;2022-07-04T18:51:19;22.30;75.60
26270;DHT22;15937;50.612;6.656;2022-07-04T18:55:45;22.40;76.90
26270;DHT22;15937;50.612;6.656;2022-07-04T19:10:26;22.10;80.30
26270;DHT22;15937;50.612;6.656;2022-07-04T19:25:31;22.20;81.30
26270;DHT22;15937;50.612;6.656;2022-07-04T19:29:54;21.90;82.70
26270;DHT22;15937;50.612;6.656;2022-07-04T19:33:56;21.80;84.50
26270;DHT22;15937;50.612;6.656;2022-07-04T19:37:58;21.90;84.70
26270;DHT22;15937;50.612;6.656;2022-07-04T19:42:00;21.90;85.40
26270;DHT22;15937;50.612;6.656;2022-07-04T19:46:02;21.50;85.80
26270;DHT22;15937;50.612;6.656;2022-07-04T19:50:04;21.40;86.00
26270;DHT22;15937;50.612;6.656;2022-07-04T19:54:10;21.20;87.10
26270;DHT22;15937;50.612;6.656;2022-07-04T19:58:20;21.20;87.00
26270;DHT22;15937;50.612;6.656;2022-07-04T20:02:26;21.10;87.50
26270;DHT22;15937;50.612;6.656;2022-07-04T20:06:36;21.00;87.20
26270;DHT22;15937;50.612;6.656;2022-07-04T20:10:41;20.70;87.70
26270;DHT22;15937;50.612;6.656;2022-07-04T20:14:50;20.80;88.00
26270;DHT22;15937;50.612;6.656;2022-07-04T20:18:57;20.80;90.00
26270;DHT22;15937;50.612;6.656;2022-07-04T20:23:15;20.80;89.10
26270;DHT22;15937;50.612;6.656;2022-07-04T20:27:19;20.80;88.30
26270;DHT22;15937;50.612;6.656;2022-07-04T20:31:25;20.80;90.00
26270;DHT22;15937;50.612;6.656;2022-07-04T20:36:05;20.70;89.80
26270;DHT22;15937;50.612;6.656;2022-07-04T20:40:10;20.60;89.20
26270;DHT22;15937;50.612;6.656;2022-07-04T20:44:12;20.20;90.80
26270;DHT22;15937;50.612;6.656;2022-07-04T20:48:14;20.30;91.10
26270;DHT22;15937;50.612;6.656;2022-07-04T20:52:16;20.40;90.90
26270;DHT22;15937;50.612;6.656;2022-07-04T20:56:18;20.40;90.50
26270;DHT22;15937;50.612;6.656;2022-07-04T21:00:20;20.40;90.90
26270;DHT22;15937;50.612;6.656;2022-07-04T21:04:22;20.30;90.40
26270;DHT22;15937;50.612;6.656;2022-07-04T21:08:23;20.00;91.20
26270;DHT22;15937;50.612;6.656;2022-07-04T21:12:26;19.70;91.70
26270;DHT22;15937;50.612;6.656;2022-07-04T21:16:29;19.60;92.60
26270;DHT22;15937;50.612;6.656;2022-07-04T21:20:32;19.40;93.90
26270;DHT22;15937;50.612;6.656;2022-07-04T21:24:39;19.40;94.20
26270;DHT22;15937;50.612;6.656;2022-07-04T21:28:50;19.30;94.70
26270;DHT22;15937;50.612;6.656;2022-07-04T21:33:00;19.40;94.60
26270;DHT22;15937;50.612;6.656;2022-07-04T21:37:03;19.20;94.40
26270;DHT22;15937;50.612;6.656;2022-07-04T21:41:05;18.90;96.20
26270;DHT22;15937;50.612;6.656;2022-07-04T21:45:07;18.90;96.90
26270;DHT22;15937;50.612;6.656;2022-07-04T21:49:10;19.00;97.40
26270;DHT22;15937;50.612;6.656;2022-07-04T21:53:12;18.80;97.40
26270;DHT22;15937;50.612;6.656;2022-07-04T21:57:14;18.60;98.40
26270;DHT22;15937;50.612;6.656;2022-07-04T22:01:16;18.80;99.10
26270;DHT22;15937;50.612;6.656;2022-07-04T22:05:21;18.70;99.50
26270;DHT22;15937;50.612;6.656;2022-07-04T22:09:23;18.70;99.80
26270;DHT22;15937;50.612;6.656;2022-07-04T22:13:25;18.20;99.80
26270;DHT22;15937;50.612;6.656;2022-07-04T22:17:27;18.30;99.90
26270;DHT22;15937;50.612;6.656;2022-07-04T22:21:28;18.20;99.90
26270;DHT22;15937;50.612;6.656;2022-07-04T22:25:30;18.10;99.90
26270;DHT22;15937;50.612;6.656;2022-07-04T22:29:33;18.20;99.90
26270;DHT22;15937;50.612;6.656;2022-07-04T22:33:34;18.10;99.90
26270;DHT22;15937;50.612;6.656;2022-07-04T22:37:37;18.00;99.90
26270;DHT22;15937;50.612;6.656;2022-07-04T22:41:38;17.70;99.90
26270;DHT22;15937;50.612;6.656;2022-07-04T22:45:40;17.60;99.90
26270;DHT22;15937;50.612;6.656;2022-07-04T22:49:42;17.30;99.90
26270;DHT22;15937;50.612;6.656;2022-07-04T22:53:45;16.90;99.90
26270;DHT22;15937;50.612;6.656;2022-07-04T22:58:05;17.30;99.90
26270;DHT22;15937;50.612;6.656;2022-07-04T23:02:07;17.40;99.90
26270;DHT22;15937;50.612;6.656;2022-07-04T23:06:09;17.20;99.90
26270;DHT22;15937;50.612;6.656;2022-07-04T23:10:11;17.20;99.90
26270;DHT22;15937;50.612;6.656;2022-07-04T23:14:13;16.90;99.90
26270;DHT22;15937;50.612;6.656;2022-07-04T23:18:15;16.90;99.90
26270;DHT22;15937;50.612;6.656;2022-07-04T23:22:17;16.80;99.90
26270;DHT22;15937;50.612;6.656;2022-07-04T23:26:19;16.80;99.90
26270;DHT22;15937;50.612;6.656;2022-07-04T23:30:21;16.90;99.90
26270;DHT22;15937;50.612;6.656;2022-07-04T23:34:22;16.90;99.90
26270;DHT22;15937;50.612;6.656;2022-07-04T23:38:24;17.00;99.90
26270;DHT22;15937;50.612;6.656;2022-07-04T23:42:26;16.90;99.90
26270;DHT22;15937;50.612;6.656;2022-07-04T23:46:28;17.10;99.90
26270;DHT22;15937;50.612;6.656;2022-07-04T23:50:30;17.00;99.90
26270;DHT22;15937;50.612;6.656;2022-07-04T23:54:32;17.20;99.90
26270;DHT22;15937;50.612;6.656;2022-07-04T23:58:34;17.20;99.90
